Fort Benton, MT (59442)

12:21 AM MDT on October 25, 2014 (GMT -0600)
North Fort Benton | Change Station
CLOSE
Current Station
Personal Weather Station
Location: Fort Benton, MT
Elevation: 2641 ft
Nearby Weather Stations

Elev 2641 ft 47.83 °N, 110.66 °W | Updated 3 seconds ago

Overcast
Overcast
46.9 °F
Feels Like 47 °F
N
0.0
Wind Variable Wind from North
Gusts 0.0 mph

Today
High -- | Low -- °F
--% Chance of Precip.
Yesterday
High -- | Low -- °F
Precip. -- in
7:56 AM 6:16 PM
New Moon, 2% visible
Pressure 30.09 in
Visibility 10.0 miles
Clouds Overcast 6500 ft
Windchill 47 °F
Dew Point 39 °F
Humidity 75%
Rainfall 0.00 in
Snow Depth Not available.
UV 0 out of 12
Pollen 3.20 out of 12
Air Quality Not available.
Flu Activity No Activity
SPECI KGFA 250428Z AUTO 04003KT 10SM -SHRA OVC065 09/05 A3009 RMK AO2

More Conditions Fewer Conditions

Pressure 30.09 in
Visibility 10.0 miles
Clouds Overcast 6500 ft
Windchill 47 °F
Dew Point 39 °F
Humidity 75%
Rainfall 0.00 in
Snow Depth Not available.
UV 0 out of 12
Pollen 3.20 out of 12
Air Quality Not available.
Flu Activity No Activity
SPECI KGFA 250428Z AUTO 04003KT 10SM -SHRA OVC065 09/05 A3009 RMK AO2

More Conditions Fewer Conditions

10-Day Weather Forecast

Almanac

Astronomy

Oct. 25, 2014 Rise Set
Actual Time 7:56 AM MDT 6:16 PM MDT
Civil Twilight 7:24 AM MDT 6:47 PM MDT
Nautical Twilight 6:48 AM MDT 7:23 PM MDT
Astronomical Twilight 6:12 AM MDT 7:59 PM MDT
Moon 9:44 AM MDT 7:35 PM MDT
Length of Visible Light 11h 22m
Length of Day
10h 19m
Tomorrow will be 3m 14s shorter.
New Moon, 2% of the Moon is Illuminated
Today
New Moon
Oct 30
First Quarter
Nov 6
Full
Nov 14
Last Quarter
Nov 22
New

Community

WunderPhotos

Upload Photos

1,764,785 photos uploaded!

Nearby

Snow Depth

Station Depth Elevation
Rocky Boy 0 in 4700 ft
Onion Park 0 in 7410 ft
Deadman Creek 0 in 6450 ft
Spur Park 0 in 8100 ft
Daisy Peak 0 in 7600 ft

Earthquake Activity

City Distance Mag. Time & Date
No recent earthquake activity has been reported nearby.
Minimum magnitude displayed is 2.5.

Coastal Water Temperatures

Place Temperature
No Stations Reporting

Nearby Weather Stations